createdAt,value
2018-10-01T00:00:38.235Z,14.17
2018-10-01T00:03:06.996Z,14.53
2018-10-01T00:05:35.742Z,13.20
2018-10-01T00:08:04.111Z,12.03
2018-10-01T00:10:32.647Z,12.07
2018-10-01T00:13:01.207Z,15.57
2018-10-01T00:15:30.024Z,14.53
2018-10-01T00:17:58.491Z,13.90
2018-10-01T00:20:32.185Z,15.27
2018-10-01T00:23:00.525Z,14.47
2018-10-01T00:25:28.956Z,12.77
2018-10-01T00:27:57.318Z,13.23
2018-10-01T00:30:25.678Z,16.00
2018-10-01T00:32:54.048Z,14.23
2018-10-01T00:35:22.382Z,14.10
2018-10-01T00:37:50.764Z,15.80
2018-10-01T00:40:19.124Z,13.50
2018-10-01T00:42:47.498Z,14.07
2018-10-01T00:45:15.910Z,13.83
2018-10-01T00:47:44.302Z,14.37
2018-10-01T00:50:12.684Z,15.27
2018-10-01T00:52:41.062Z,17.93
2018-10-01T00:55:09.456Z,16.87
2018-10-01T00:57:37.803Z,14.33
2018-10-01T01:00:06.556Z,15.77
2018-10-01T01:02:34.941Z,15.07
2018-10-01T01:05:03.395Z,14.37
2018-10-01T01:07:32.097Z,16.33
2018-10-01T01:10:00.422Z,11.07
2018-10-01T01:12:28.782Z,12.87
2018-10-01T01:14:57.033Z,13.70
2018-10-01T01:17:25.409Z,13.93
2018-10-01T01:19:53.793Z,12.67
2018-10-01T01:22:22.192Z,12.07
2018-10-01T01:24:50.548Z,11.83
2018-10-01T01:27:18.896Z,13.73
2018-10-01T01:29:47.262Z,14.17
2018-10-01T01:32:15.739Z,12.00
2018-10-01T01:34:44.079Z,11.50
2018-10-01T01:37:12.404Z,10.70
2018-10-01T01:39:40.774Z,11.93
2018-10-01T01:42:09.206Z,12.00
2018-10-01T01:44:37.545Z,10.80
2018-10-01T01:47:06.033Z,9.73
2018-10-01T01:49:34.394Z,11.63
2018-10-01T01:52:02.715Z,9.90
2018-10-01T01:54:31.053Z,9.37
2018-10-01T01:56:59.493Z,9.67
2018-10-01T01:59:28.217Z,10.17
2018-10-01T02:01:56.784Z,10.47
2018-10-01T02:04:25.355Z,7.83
2018-10-01T02:06:53.757Z,8.07
2018-10-01T02:09:22.693Z,9.88
2018-10-01T02:11:51.059Z,11.47
2018-10-01T02:14:19.419Z,7.43
2018-10-01T02:16:47.749Z,7.70
2018-10-01T02:19:16.153Z,10.23
2018-10-01T02:21:45.102Z,7.72
2018-10-01T02:24:14.006Z,7.83
2018-10-01T02:26:42.383Z,11.83
2018-10-01T02:29:10.706Z,8.80
2018-10-01T02:31:39.096Z,9.23
2018-10-01T02:34:07.732Z,8.37
2018-10-01T02:36:36.672Z,9.43
2018-10-01T02:39:09.314Z,8.50
2018-10-01T02:41:37.671Z,8.60
2018-10-01T02:44:06.232Z,8.33
2018-10-01T02:46:34.612Z,8.80
2018-10-01T02:49:02.956Z,9.90
2018-10-01T02:51:31.361Z,7.70
2018-10-01T02:54:05.080Z,8.43
2018-10-01T02:56:33.430Z,8.33
2018-10-01T02:59:01.827Z,10.37
2018-10-01T03:01:30.204Z,8.37
2018-10-01T03:03:58.559Z,8.00
2018-10-01T03:06:26.886Z,8.57
2018-10-01T03:08:55.222Z,8.03
2018-10-01T03:11:23.588Z,6.97
2018-10-01T03:13:51.941Z,6.93
2018-10-01T03:16:20.498Z,9.10
2018-10-01T03:18:48.871Z,5.87
2018-10-01T03:21:17.446Z,10.43
2018-10-01T03:23:45.958Z,10.77
2018-10-01T03:26:14.298Z,8.83
2018-10-01T03:28:42.643Z,7.87
2018-10-01T03:31:10.986Z,9.43
2018-10-01T03:33:39.356Z,9.80
2018-10-01T03:36:07.731Z,8.13
2018-10-01T03:38:36.122Z,9.27
2018-10-01T03:41:04.501Z,7.50
2018-10-01T03:43:32.861Z,5.80
2018-10-01T03:46:01.246Z,7.80
2018-10-01T03:48:29.605Z,7.37
2018-10-01T03:50:58.000Z,9.27
2018-10-01T03:53:26.462Z,7.60
2018-10-01T03:55:54.828Z,10.87
2018-10-01T03:58:23.265Z,7.20
2018-10-01T04:00:51.658Z,9.30
2018-10-01T04:03:20.197Z,6.13
2018-10-01T04:05:48.897Z,7.97
2018-10-01T04:08:17.237Z,6.27
2018-10-01T04:10:45.612Z,8.43
2018-10-01T04:13:13.997Z,13.23
2018-10-01T04:15:42.382Z,8.97
2018-10-01T04:18:10.705Z,7.00
2018-10-01T04:20:39.061Z,6.97
2018-10-01T04:23:07.447Z,9.43
2018-10-01T04:25:35.863Z,7.43
2018-10-01T04:28:04.437Z,6.53
2018-10-01T04:30:32.973Z,9.30
2018-10-01T04:33:01.346Z,9.07
2018-10-01T04:35:29.698Z,9.03
2018-10-01T04:37:58.035Z,11.60
2018-10-01T04:40:26.466Z,9.80
2018-10-01T04:42:54.798Z,9.47
2018-10-01T04:45:23.273Z,10.27
2018-10-01T04:47:51.693Z,10.30
2018-10-01T04:50:20.022Z,9.63
2018-10-01T04:52:48.386Z,9.83
2018-10-01T04:55:16.731Z,12.67
2018-10-01T04:57:45.096Z,9.40
2018-10-01T05:00:13.560Z,8.30
2018-10-01T05:02:41.906Z,8.70
2018-10-01T05:05:10.290Z,8.83
2018-10-01T05:07:38.644Z,12.70
2018-10-01T05:10:07.102Z,9.20
2018-10-01T05:12:35.454Z,9.17
2018-10-01T05:15:03.888Z,8.57
2018-10-01T05:17:32.272Z,7.43
2018-10-01T05:20:00.642Z,9.00
2018-10-01T05:22:29.108Z,10.73
2018-10-01T05:24:57.798Z,10.70
2018-10-01T05:27:26.192Z,11.17
2018-10-01T05:29:54.589Z,8.90
2018-10-01T05:32:22.985Z,9.97
2018-10-01T05:34:51.352Z,8.13
2018-10-01T05:37:19.697Z,9.20
2018-10-01T05:39:48.122Z,12.93
2018-10-01T05:42:16.493Z,10.03
2018-10-01T05:44:44.852Z,9.23
2018-10-01T05:47:13.213Z,11.67
2018-10-01T05:49:41.577Z,9.43
2018-10-01T05:52:09.927Z,7.00
2018-10-01T05:54:38.337Z,7.50
2018-10-01T05:57:06.817Z,7.30
2018-10-01T05:59:35.350Z,9.27
2018-10-01T06:02:03.899Z,8.30
2018-10-01T06:04:32.249Z,8.57
2018-10-01T06:07:00.668Z,11.20
2018-10-01T06:09:29.005Z,8.00
2018-10-01T06:11:57.487Z,10.70
2018-10-01T06:14:26.043Z,9.87
2018-10-01T06:16:55.024Z,10.68
2018-10-01T06:19:23.915Z,9.15
2018-10-01T06:21:52.468Z,7.90
2018-10-01T06:24:20.870Z,9.17
2018-10-01T06:26:49.855Z,11.45
2018-10-01T06:29:18.809Z,6.85
2018-10-01T06:31:47.744Z,8.23
2018-10-01T06:34:16.673Z,8.78
2018-10-01T06:36:45.616Z,7.53
2018-10-01T06:39:14.544Z,9.25
2018-10-01T06:41:43.612Z,11.83
2018-10-01T06:44:12.675Z,11.57
2018-10-01T06:46:41.721Z,11.33
2018-10-01T06:49:10.617Z,8.78
2018-10-01T06:51:39.557Z,13.65
2018-10-01T06:54:08.486Z,13.88
2018-10-01T06:56:37.599Z,12.28
2018-10-01T06:59:06.545Z,20.25
2018-10-01T07:01:35.467Z,11.33
2018-10-01T07:04:04.435Z,10.93
2018-10-01T07:06:33.343Z,11.03
2018-10-01T07:09:02.357Z,10.20
2018-10-01T07:11:31.584Z,10.35
2018-10-01T07:14:00.650Z,10.45
2018-10-01T07:16:29.605Z,12.15
2018-10-01T07:18:58.745Z,8.80
2018-10-01T07:21:27.655Z,11.38
2018-10-01T07:23:56.618Z,10.23
2018-10-01T07:26:25.608Z,8.38
2018-10-01T07:28:54.543Z,22.25
2018-10-01T07:31:23.582Z,10.58
2018-10-01T07:33:52.552Z,11.75
2018-10-01T07:36:21.498Z,13.32
2018-10-01T07:38:50.611Z,9.38
2018-10-01T07:41:19.736Z,11.73
2018-10-01T07:43:48.662Z,12.53
2018-10-01T07:46:17.585Z,12.63
2018-10-01T07:48:47.089Z,11.33
2018-10-01T07:51:16.128Z,10.43
2018-10-01T07:53:45.266Z,11.57
2018-10-01T07:56:14.224Z,12.90
2018-10-01T07:58:43.171Z,13.50
2018-10-01T08:01:12.117Z,13.30
2018-10-01T08:03:41.042Z,11.08
2018-10-01T08:06:10.011Z,11.78
2018-10-01T08:08:38.960Z,10.45
2018-10-01T08:11:08.097Z,11.68
2018-10-01T08:13:37.081Z,12.45
2018-10-01T08:16:06.587Z,13.55
2018-10-01T08:18:35.544Z,10.80
2018-10-01T08:21:04.528Z,13.43
2018-10-01T08:23:33.546Z,17.17
2018-10-01T08:26:03.014Z,12.43
2018-10-01T08:28:32.113Z,13.15
2018-10-01T08:31:01.023Z,14.68
2018-10-01T08:33:29.950Z,11.22
2018-10-01T08:35:58.870Z,11.65
2018-10-01T08:38:27.905Z,12.30
2018-10-01T08:40:56.978Z,14.53
2018-10-01T08:43:25.910Z,14.95
2018-10-01T08:45:54.862Z,13.98
2018-10-01T08:48:24.823Z,16.65
2018-10-01T08:51:01.495Z,16.97
2018-10-01T08:53:35.739Z,14.63
2018-10-01T08:56:04.926Z,11.78
2018-10-01T08:58:34.001Z,15.32
2018-10-01T09:01:03.286Z,15.68
2018-10-01T09:03:32.385Z,15.38
2018-10-01T09:06:01.323Z,14.75
2018-10-01T09:08:30.312Z,13.88
2018-10-01T09:10:59.443Z,16.95
2018-10-01T09:13:28.577Z,15.20
2018-10-01T09:15:57.587Z,14.90
2018-10-01T09:18:26.497Z,14.50
2018-10-01T09:20:55.441Z,12.05
2018-10-01T09:23:24.435Z,13.90
2018-10-01T09:25:53.576Z,18.98
2018-10-01T09:28:22.518Z,13.60
2018-10-01T09:30:51.731Z,15.40
2018-10-01T09:33:20.859Z,13.68
2018-10-01T09:35:49.914Z,14.07
2018-10-01T09:38:18.929Z,14.98
2018-10-01T09:40:48.014Z,15.65
2018-10-01T09:43:16.941Z,14.43
2018-10-01T09:45:45.901Z,13.78
2018-10-01T09:48:14.818Z,16.23
2018-10-01T09:50:43.755Z,14.18
2018-10-01T09:53:12.673Z,12.43
2018-10-01T09:55:41.620Z,14.47
2018-10-01T09:58:10.579Z,14.13
2018-10-01T10:00:43.168Z,13.38
2018-10-01T10:03:12.614Z,14.95
2018-10-01T10:05:41.559Z,12.25
2018-10-01T10:08:10.581Z,12.63
2018-10-01T10:10:39.789Z,12.82
2018-10-01T10:13:09.067Z,14.55
2018-10-01T10:15:38.003Z,12.55
2018-10-01T10:18:07.026Z,16.07
2018-10-01T10:20:36.184Z,14.83
2018-10-01T10:23:05.335Z,14.68
2018-10-01T10:25:34.637Z,18.07
2018-10-01T10:28:03.700Z,16.95
2018-10-01T10:30:32.821Z,18.82
2018-10-01T10:33:01.789Z,19.50
2018-10-01T10:35:30.763Z,16.27
2018-10-01T10:37:59.885Z,18.07
2018-10-01T10:40:29.046Z,21.35
2018-10-01T10:42:57.993Z,20.88
2018-10-01T10:45:26.947Z,18.10
2018-10-01T10:47:56.085Z,14.28
2018-10-01T10:50:25.285Z,15.40
2018-10-01T10:52:54.398Z,11.88
2018-10-01T10:55:23.374Z,8.55
2018-10-01T10:57:52.326Z,8.10
2018-10-01T11:00:21.297Z,8.15
2018-10-01T11:02:50.223Z,8.05
2018-10-01T11:05:19.182Z,9.80
2018-10-01T11:07:48.122Z,7.95
2018-10-01T11:10:17.084Z,8.10
2018-10-01T11:12:46.338Z,8.80
2018-10-01T11:15:15.425Z,9.15
2018-10-01T11:17:44.554Z,7.37
2018-10-01T11:20:13.676Z,9.63
2018-10-01T11:22:42.772Z,9.20
2018-10-01T11:25:11.813Z,8.80
2018-10-01T11:27:40.901Z,7.67
2018-10-01T11:30:09.939Z,7.65
2018-10-01T11:32:38.936Z,8.40
2018-10-01T11:35:08.449Z,9.23
2018-10-01T11:37:37.425Z,6.40
2018-10-01T11:40:06.365Z,7.67
2018-10-01T11:42:35.666Z,7.53
2018-10-01T11:45:04.833Z,7.37
2018-10-01T11:47:33.937Z,5.90
2018-10-01T11:50:02.849Z,5.90
2018-10-01T11:52:31.873Z,7.12
2018-10-01T11:55:00.962Z,8.18
2018-10-01T11:57:30.033Z,7.87
2018-10-01T11:59:59.109Z,8.35
2018-10-01T12:02:28.025Z,8.83
2018-10-01T12:04:57.007Z,7.75
2018-10-01T12:07:25.911Z,7.90
2018-10-01T12:09:54.887Z,8.98
2018-10-01T12:12:23.925Z,7.08
2018-10-01T12:14:52.879Z,7.72
2018-10-01T12:17:21.805Z,8.63
2018-10-01T12:19:50.781Z,14.38
2018-10-01T12:22:19.721Z,10.90
2018-10-01T12:24:48.673Z,11.03
2018-10-01T12:27:17.688Z,11.18
2018-10-01T12:29:46.795Z,13.65
2018-10-01T12:32:15.715Z,12.75
2018-10-01T12:34:44.647Z,11.78
2018-10-01T12:37:13.605Z,15.50
2018-10-01T12:39:42.593Z,12.35
2018-10-01T12:42:11.689Z,11.78
2018-10-01T12:44:40.605Z,10.78
2018-10-01T12:47:09.549Z,8.25
2018-10-01T12:49:38.500Z,11.35
2018-10-01T12:52:07.458Z,12.35
2018-10-01T12:54:36.476Z,11.25
2018-10-01T12:57:05.539Z,12.75
2018-10-01T12:59:34.758Z,12.28
2018-10-01T13:02:03.844Z,12.15
2018-10-01T13:04:32.820Z,12.30
2018-10-01T13:07:02.064Z,10.82
2018-10-01T13:09:31.118Z,9.45
2018-10-01T13:12:00.227Z,12.82
2018-10-01T13:14:29.299Z,9.58
2018-10-01T13:16:58.186Z,8.98
2018-10-01T13:19:27.192Z,7.05
2018-10-01T13:21:56.164Z,5.55
2018-10-01T13:24:25.249Z,8.98
2018-10-01T13:26:54.389Z,6.53
2018-10-01T13:29:23.366Z,6.65
2018-10-01T13:31:52.523Z,6.08
2018-10-01T13:34:21.594Z,6.62
2018-10-01T13:36:50.536Z,8.10
2018-10-01T13:39:19.451Z,7.17
2018-10-01T13:41:48.410Z,7.72
2018-10-01T13:44:17.649Z,6.75
2018-10-01T13:46:46.748Z,6.20
2018-10-01T13:49:15.710Z,9.33
2018-10-01T13:51:44.646Z,3.47
2018-10-01T13:54:13.756Z,3.55
2018-10-01T13:56:42.917Z,4.80
2018-10-01T13:59:11.835Z,4.28
2018-10-01T14:01:40.969Z,5.03
2018-10-01T14:04:09.985Z,6.05
2018-10-01T14:06:38.910Z,5.10
2018-10-01T14:09:10.418Z,6.72
2018-10-01T14:11:39.778Z,6.15
2018-10-01T14:14:08.712Z,4.67
2018-10-01T14:16:37.683Z,6.92
2018-10-01T14:19:06.681Z,7.92
2018-10-01T14:21:35.743Z,5.15
2018-10-01T14:24:04.627Z,4.58
2018-10-01T14:26:33.546Z,7.92
2018-10-01T14:29:02.461Z,5.50
2018-10-01T14:31:31.425Z,6.58
2018-10-01T14:34:00.361Z,5.55
2018-10-01T14:36:29.351Z,4.30
2018-10-01T14:38:58.769Z,5.47
2018-10-01T14:41:27.690Z,5.08
2018-10-01T14:43:56.653Z,4.80
2018-10-01T14:46:25.582Z,5.17
2018-10-01T14:48:54.509Z,3.08
2018-10-01T14:51:23.561Z,4.10
2018-10-01T14:53:52.596Z,6.45
2018-10-01T14:56:21.502Z,4.10
2018-10-01T14:58:50.419Z,3.62
2018-10-01T15:01:19.366Z,6.37
2018-10-01T15:03:48.468Z,5.72
2018-10-01T15:06:17.623Z,4.25
2018-10-01T15:08:46.678Z,2.80
2018-10-01T15:11:15.595Z,3.15
2018-10-01T15:13:44.520Z,8.05
2018-10-01T15:16:13.519Z,7.37
2018-10-01T15:18:42.610Z,5.35
2018-10-01T15:21:11.720Z,4.47
2018-10-01T15:23:40.666Z,6.95
2018-10-01T15:26:09.607Z,3.40
2018-10-01T15:28:38.518Z,3.12
2018-10-01T15:31:07.463Z,2.25
2018-10-01T15:33:36.444Z,3.25
2018-10-01T15:36:05.479Z,3.90
2018-10-01T15:38:34.515Z,5.70
2018-10-01T15:41:03.466Z,3.50
2018-10-01T15:43:32.424Z,3.42
2018-10-01T15:46:01.355Z,2.55
2018-10-01T15:48:30.378Z,3.80
2018-10-01T15:50:59.499Z,2.10
2018-10-01T15:53:28.523Z,5.65
2018-10-01T15:55:57.588Z,2.20
2018-10-01T15:58:26.765Z,2.83
2018-10-01T16:00:55.666Z,2.62
2018-10-01T16:03:24.673Z,3.35
2018-10-01T16:05:53.755Z,4.42
2018-10-01T16:08:22.660Z,3.62
2018-10-01T16:10:51.590Z,4.67
2018-10-01T16:13:20.517Z,3.35
2018-10-01T16:15:49.476Z,4.42
2018-10-01T16:18:18.616Z,2.17
2018-10-01T16:20:50.502Z,4.70
2018-10-01T16:23:19.428Z,3.08
2018-10-01T16:25:48.655Z,4.85
2018-10-01T16:28:17.592Z,3.20
2018-10-01T16:30:46.521Z,3.25
2018-10-01T16:33:15.465Z,2.87
2018-10-01T16:35:44.398Z,4.40
2018-10-01T16:38:13.381Z,1.92
2018-10-01T16:40:42.278Z,3.67
2018-10-01T16:43:11.220Z,4.05
2018-10-01T16:45:40.121Z,2.58
2018-10-01T16:48:09.110Z,4.87
2018-10-01T16:50:38.353Z,3.67
2018-10-01T16:53:07.557Z,6.70
2018-10-01T16:55:36.505Z,2.70
2018-10-01T16:58:05.492Z,3.67
2018-10-01T17:00:34.450Z,2.02
2018-10-01T17:03:03.397Z,2.05
2018-10-01T17:05:32.330Z,1.30
2018-10-01T17:08:01.251Z,2.72
2018-10-01T17:10:30.145Z,3.27
2018-10-01T17:12:59.064Z,2.92
2018-10-01T17:15:28.420Z,4.28
2018-10-01T17:17:57.464Z,2.52
2018-10-01T17:20:26.416Z,1.90
2018-10-01T17:22:55.340Z,2.58
2018-10-01T17:25:24.254Z,2.55
2018-10-01T17:27:53.194Z,2.47
2018-10-01T17:30:22.140Z,2.55
2018-10-01T17:32:51.147Z,1.50
2018-10-01T17:35:20.078Z,1.62
2018-10-01T17:37:49.016Z,2.42
2018-10-01T17:40:18.343Z,2.95
2018-10-01T17:42:47.254Z,2.27
2018-10-01T17:45:16.286Z,1.90
2018-10-01T17:47:45.248Z,7.03
2018-10-01T17:50:14.345Z,2.15
2018-10-01T17:52:43.739Z,2.33
2018-10-01T17:55:12.822Z,1.30
2018-10-01T17:57:41.787Z,2.52
2018-10-01T18:00:10.790Z,2.37
2018-10-01T18:02:39.934Z,1.17
2018-10-01T18:05:09.440Z,1.75
2018-10-01T18:07:38.347Z,1.70
2018-10-01T18:10:07.661Z,2.27
2018-10-01T18:12:36.608Z,3.40
2018-10-01T18:15:06.427Z,2.00
2018-10-01T18:17:35.339Z,2.92
2018-10-01T18:20:04.317Z,2.65
2018-10-01T18:22:33.259Z,2.37
2018-10-01T18:25:02.182Z,3.35
2018-10-01T18:27:31.083Z,3.12
2018-10-01T18:30:00.090Z,2.72
2018-10-01T18:32:29.114Z,3.20
2018-10-01T18:34:58.057Z,2.50
2018-10-01T18:37:27.013Z,2.17
2018-10-01T18:39:56.171Z,1.95
2018-10-01T18:42:25.171Z,2.62
2018-10-01T18:44:54.232Z,2.15
2018-10-01T18:47:23.154Z,3.17
2018-10-01T18:49:52.079Z,3.12
2018-10-01T18:52:21.014Z,3.08
2018-10-01T18:54:49.961Z,2.58
2018-10-01T18:57:18.935Z,1.87
2018-10-01T18:59:48.035Z,3.33
2018-10-01T19:02:17.161Z,2.02
2018-10-01T19:04:46.061Z,2.05
2018-10-01T19:07:14.997Z,8.75
2018-10-01T19:09:43.904Z,1.67
2018-10-01T19:12:12.858Z,2.58
2018-10-01T19:14:42.032Z,2.60
2018-10-01T19:17:11.151Z,2.22
2018-10-01T19:19:40.055Z,3.83
2018-10-01T19:22:08.984Z,3.08
2018-10-01T19:24:37.891Z,2.08
2018-10-01T19:27:07.197Z,2.33
2018-10-01T19:29:36.271Z,1.60
2018-10-01T19:32:05.191Z,3.55
2018-10-01T19:34:34.092Z,3.27
2018-10-01T19:37:03.050Z,2.37
2018-10-01T19:39:32.038Z,2.37
2018-10-01T19:42:00.952Z,1.82
2018-10-01T19:44:29.861Z,2.55
2018-10-01T19:46:58.847Z,1.52
2018-10-01T19:49:27.936Z,2.25
2018-10-01T19:51:56.837Z,2.72
2018-10-01T19:54:25.778Z,1.27
2018-10-01T19:56:54.783Z,1.90
2018-10-01T19:59:23.958Z,2.05
2018-10-01T20:01:52.996Z,1.37
2018-10-01T20:04:21.917Z,2.17
2018-10-01T20:06:50.861Z,2.25
2018-10-01T20:09:19.835Z,3.55
2018-10-01T20:11:48.901Z,1.55
2018-10-01T20:14:17.854Z,1.85
2018-10-01T20:16:46.769Z,2.58
2018-10-01T20:19:15.849Z,3.92
2018-10-01T20:21:44.828Z,3.22
2018-10-01T20:24:13.914Z,1.90
2018-10-01T20:26:43.129Z,4.25
2018-10-01T20:29:12.307Z,3.22
2018-10-01T20:31:41.252Z,2.98
2018-10-01T20:34:10.423Z,2.45
2018-10-01T20:36:39.346Z,2.75
2018-10-01T20:39:08.975Z,2.12
2018-10-01T20:41:37.911Z,3.25
2018-10-01T20:44:06.879Z,3.00
2018-10-01T20:46:36.009Z,2.65
2018-10-01T20:49:04.983Z,1.90
2018-10-01T20:51:33.888Z,1.98
2018-10-01T20:54:03.035Z,1.82
2018-10-01T20:56:31.400Z,1.93
2018-10-01T20:59:00.399Z,1.45
2018-10-01T21:01:29.414Z,2.58
2018-10-01T21:03:57.802Z,2.83
2018-10-01T21:06:26.716Z,2.12
2018-10-01T21:08:55.097Z,3.47
2018-10-01T21:11:23.464Z,2.13
2018-10-01T21:13:52.373Z,4.58
2018-10-01T21:16:20.732Z,3.58
2018-10-01T21:18:49.185Z,2.13
2018-10-01T21:21:17.931Z,1.15
2018-10-01T21:23:46.317Z,2.57
2018-10-01T21:26:14.665Z,4.62
2018-10-01T21:28:43.579Z,4.05
2018-10-01T21:31:11.912Z,3.53
2018-10-01T21:33:40.281Z,2.07
2018-10-01T21:36:09.205Z,5.12
2018-10-01T21:38:40.744Z,4.13
2018-10-01T21:41:09.898Z,1.87
2018-10-01T21:43:38.457Z,2.10
2018-10-01T21:46:08.196Z,3.55
2018-10-01T21:48:36.619Z,2.17
2018-10-01T21:51:04.989Z,4.07
2018-10-01T21:53:33.700Z,2.43
2018-10-01T21:56:02.158Z,2.80
2018-10-01T21:58:31.214Z,1.60
2018-10-01T22:01:05.150Z,2.07
2018-10-01T22:03:33.862Z,2.57
2018-10-01T22:06:02.215Z,1.97
2018-10-01T22:08:30.610Z,5.23
2018-10-01T22:10:58.984Z,2.93
2018-10-01T22:13:27.314Z,2.60
2018-10-01T22:15:55.769Z,3.53
2018-10-01T22:18:24.169Z,2.87
2018-10-01T22:20:52.590Z,4.50
2018-10-01T22:23:20.932Z,2.20
2018-10-01T22:25:49.274Z,3.57
2018-10-01T22:28:17.697Z,2.00
2018-10-01T22:30:46.070Z,4.10
2018-10-01T22:33:14.404Z,3.37
2018-10-01T22:35:42.773Z,4.27
2018-10-01T22:38:11.124Z,4.63
2018-10-01T22:40:39.514Z,2.10
2018-10-01T22:43:07.851Z,5.30
2018-10-01T22:45:36.260Z,4.37
2018-10-01T22:48:04.618Z,4.23
2018-10-01T22:50:32.986Z,4.17
2018-10-01T22:53:01.323Z,4.30
2018-10-01T22:55:29.696Z,3.77
2018-10-01T22:57:58.056Z,2.27
2018-10-01T23:00:27.285Z,4.30
2018-10-01T23:02:55.704Z,3.00
2018-10-01T23:05:24.224Z,2.50
2018-10-01T23:07:52.618Z,4.23
2018-10-01T23:10:21.074Z,3.63
2018-10-01T23:12:49.510Z,2.87
2018-10-01T23:15:18.063Z,1.87
2018-10-01T23:17:46.390Z,3.30
2018-10-01T23:20:14.739Z,1.93
2018-10-01T23:22:43.085Z,4.63
2018-10-01T23:25:11.426Z,5.37
2018-10-01T23:27:39.763Z,5.13
2018-10-01T23:30:08.156Z,3.63
2018-10-01T23:32:36.974Z,4.50
2018-10-01T23:35:05.397Z,3.77
2018-10-01T23:37:33.757Z,4.17
2018-10-01T23:40:02.157Z,4.37
2018-10-01T23:42:30.516Z,4.33
2018-10-01T23:44:58.843Z,5.97
2018-10-01T23:47:27.253Z,4.90
2018-10-01T23:49:55.606Z,3.53
2018-10-01T23:52:23.942Z,5.00
2018-10-01T23:54:52.307Z,3.03
2018-10-01T23:57:20.653Z,4.47
2018-10-01T23:59:49.029Z,3.97
